Time;durP1;ratioP1;P1;durP2;ratioP2;P2;SDS_P1;SDS_P2;PMS_P1;PMS_P2;Temp;Humidity;BMP_temperature;BMP_pressure;BME280_temperature;BME280_humidity;BME280_pressure;Samples;Min_cycle;Max_cycle;Signal;HPM_P1;HPM_P2
2022/12/02 00:05:27;;;;;;;22.75;11.43;;;;;;;4.92;75.76;100032.48;4189557;85;28484;-88
2022/12/02 00:11:31;;;;;;;20.77;10.08;;;;;;;4.74;77.86;100018.84;4178892;85;28586;-87
2022/12/02 00:17:32;;;;;;;20.10;10.30;;;;;;;5.29;75.27;100013.21;4206972;83;28583;-88
2022/12/02 00:23:33;;;;;;;20.90;10.35;;;;;;;5.12;76.79;100010.26;4168813;84;28531;-86
2022/12/02 00:29:37;;;;;;;20.55;9.45;;;;;;;5.24;75.65;100012.06;4182705;83;28475;-87
2022/12/02 00:35:39;;;;;;;19.65;9.43;;;;;;;4.75;77.47;100009.84;4185563;83;28561;-85
2022/12/02 00:41:40;;;;;;;20.08;9.90;;;;;;;4.55;77.75;100013.37;4198068;83;28471;-84
2022/12/02 00:47:41;;;;;;;20.55;9.95;;;;;;;4.86;76.47;100014.81;4186410;83;28470;-85
2022/12/02 00:53:43;;;;;;;20.88;10.13;;;;;;;4.47;78.00;100006.20;4192744;83;28519;-84
2022/12/02 00:59:45;;;;;;;20.50;10.43;;;;;;;5.14;76.68;100011.76;4230746;82;28593;-84
2022/12/02 01:05:46;;;;;;;19.98;10.30;;;;;;;4.92;77.41;100008.49;4247255;82;28489;-85
2022/12/02 01:11:48;;;;;;;21.90;10.82;;;;;;;5.08;75.22;100002.28;4254181;82;28586;-87
2022/12/02 01:17:49;;;;;;;24.47;11.85;;;;;;;5.34;74.79;99998.03;4256284;82;28495;-87
2022/12/02 01:23:51;;;;;;;20.65;10.43;;;;;;;6.02;71.66;99984.17;4259547;83;28518;-86
2022/12/02 01:29:52;;;;;;;18.52;9.38;;;;;;;5.13;74.21;99990.59;4262843;82;28922;-85
2022/12/02 01:35:54;;;;;;;21.50;9.78;;;;;;;4.49;79.08;99981.59;4287813;82;28589;-86
2022/12/02 01:41:55;;;;;;;21.05;10.85;;;;;;;5.08;76.47;99973.78;4278321;81;28450;-85
2022/12/02 01:48:00;;;;;;;20.77;11.05;;;;;;;5.36;72.22;99978.67;4244523;82;28582;-83
2022/12/02 01:54:02;;;;;;;21.37;10.30;;;;;;;5.09;74.62;99983.44;4265063;82;28624;-84
2022/12/02 02:00:06;;;;;;;25.05;11.43;;;;;;;4.69;76.92;99985.23;4273537;82;28534;-86
2022/12/02 02:06:09;;;;;;;25.32;12.82;;;;;;;5.41;74.10;99973.64;4252042;82;28506;-86
2022/12/02 02:12:10;;;;;;;23.92;11.35;;;;;;;6.10;70.98;99966.77;4250467;81;28598;-85
2022/12/02 02:18:14;;;;;;;26.77;12.68;;;;;;;5.48;72.57;99968.95;4258349;82;28479;-85
2022/12/02 02:24:16;;;;;;;26.07;13.00;;;;;;;5.12;73.57;99968.94;4269873;82;28499;-83
2022/12/02 02:30:18;;;;;;;25.08;12.60;;;;;;;5.30;73.63;99970.87;4290907;80;28482;-86
2022/12/02 02:36:20;;;;;;;27.75;13.35;;;;;;;5.35;73.54;99970.35;4249301;83;28493;-87
2022/12/02 02:42:23;;;;;;;23.57;11.53;;;;;;;5.86;71.42;99958.39;4266537;83;28569;-87
2022/12/02 02:48:27;;;;;;;25.30;11.40;;;;;;;5.64;72.17;99960.03;4273996;82;28494;-86
2022/12/02 02:54:28;;;;;;;24.10;11.38;;;;;;;5.11;73.60;99959.28;4277428;82;28564;-82
2022/12/02 03:00:30;;;;;;;23.35;11.83;;;;;;;4.78;79.52;99954.87;4248613;83;28601;-83
2022/12/02 03:06:33;;;;;;;25.23;12.25;;;;;;;4.96;78.52;99952.02;4240767;82;28536;-82
2022/12/02 03:12:36;;;;;;;22.05;9.93;;;;;;;5.09;77.69;99945.30;4237884;82;28588;-82
2022/12/02 03:18:39;;;;;;;23.85;12.00;;;;;;;5.03;77.25;99951.64;4259335;82;28581;-83
2022/12/02 03:24:41;;;;;;;24.00;11.18;;;;;;;5.70;72.49;99942.80;4232590;82;28468;-83
2022/12/02 03:30:43;;;;;;;22.25;11.15;;;;;;;5.16;77.31;99942.28;4250585;83;28571;-82
2022/12/02 03:36:44;;;;;;;26.33;12.00;;;;;;;5.29;75.83;99939.03;4223970;82;28537;-84
2022/12/02 03:42:45;;;;;;;24.05;10.88;;;;;;;5.33;75.98;99940.86;4248603;82;28468;-83
2022/12/02 03:48:47;;;;;;;24.70;10.80;;;;;;;4.57;80.23;99939.45;4235363;82;28444;-84
2022/12/02 03:54:48;;;;;;;24.63;11.70;;;;;;;4.73;81.45;99930.59;4250087;82;28584;-82
2022/12/02 04:00:50;;;;;;;24.35;11.55;;;;;;;5.03;79.68;99924.98;4244524;82;28512;-82
2022/12/02 04:06:52;;;;;;;20.25;9.90;;;;;;;5.37;79.00;99922.19;4234741;83;28512;-82
2022/12/02 04:12:53;;;;;;;24.57;11.10;;;;;;;5.07;78.75;99924.14;4220286;82;28586;-80
2022/12/02 04:18:54;;;;;;;21.07;11.28;;;;;;;4.71;81.76;99930.75;4242710;82;28479;-81
2022/12/02 04:24:57;;;;;;;23.75;11.55;;;;;;;5.30;80.15;99922.03;4259036;82;28549;-81
2022/12/02 04:30:58;;;;;;;21.97;10.50;;;;;;;5.34;79.56;99925.18;4252050;82;28565;-81
2022/12/02 04:37:00;;;;;;;19.23;9.80;;;;;;;4.87;80.16;99927.73;4217077;82;28537;-82
2022/12/02 04:43:01;;;;;;;22.62;10.88;;;;;;;4.86;80.76;99926.88;4240735;84;28503;-81
2022/12/02 04:49:02;;;;;;;22.00;10.65;;;;;;;5.26;79.96;99925.58;4248772;82;28546;-82
2022/12/02 04:55:05;;;;;;;22.32;10.78;;;;;;;5.51;79.35;99918.75;4249784;82;28545;-82
2022/12/02 05:01:06;;;;;;;24.18;10.90;;;;;;;4.78;81.87;99932.23;4189103;81;28476;-83
2022/12/02 05:07:08;;;;;;;21.62;10.72;;;;;;;5.19;78.63;99921.94;4165808;84;28551;-85
2022/12/02 05:13:09;;;;;;;25.00;11.03;;;;;;;4.68;82.19;99929.77;4175293;84;28479;-84
2022/12/02 05:19:10;;;;;;;23.25;10.88;;;;;;;5.10;80.50;99926.48;4166302;84;28507;-84
2022/12/02 05:25:14;;;;;;;19.20;9.70;;;;;;;4.93;81.14;99930.20;4161224;85;28521;-83
2022/12/02 05:31:15;;;;;;;21.33;10.35;;;;;;;4.18;82.54;99942.34;4141899;85;28503;-83
2022/12/02 05:37:16;;;;;;;19.45;9.55;;;;;;;4.42;82.78;99932.66;4133286;84;28576;-83
2022/12/02 05:43:22;;;;;;;18.25;8.80;;;;;;;4.13;84.35;99924.69;4161112;83;28526;-83
2022/12/02 05:49:24;;;;;;;20.12;9.50;;;;;;;4.41;81.87;99934.99;4151786;84;28669;-84
2022/12/02 05:55:26;;;;;;;17.87;8.65;;;;;;;4.56;81.90;99927.95;4132144;84;28551;-85
2022/12/02 06:01:35;;;;;;;19.90;9.80;;;;;;;4.71;82.23;99927.28;4145666;83;28511;-83
2022/12/02 06:07:38;;;;;;;19.02;9.88;;;;;;;5.10;80.89;99932.30;4171736;84;28489;-81
2022/12/02 06:13:39;;;;;;;18.35;9.48;;;;;;;4.46;84.06;99936.14;4157406;84;28567;-83
2022/12/02 06:19:46;;;;;;;19.17;8.78;;;;;;;4.54;83.80;99936.62;4157115;84;28947;-83
2022/12/02 06:25:50;;;;;;;18.12;8.73;;;;;;;4.29;84.13;99936.67;4119780;85;28512;-83
2022/12/02 06:31:52;;;;;;;20.77;9.75;;;;;;;4.36;84.80;99936.83;4167341;84;28503;-83
2022/12/02 06:37:59;;;;;;;19.17;9.75;;;;;;;4.20;86.38;99944.33;4110422;84;28552;-85
2022/12/02 06:50:39;;;;;;;18.40;9.50;;;;;;;3.87;87.38;99953.63;4162663;84;28498;-83
2022/12/02 06:56:40;;;;;;;21.15;10.43;;;;;;;3.49;88.30;99952.73;4168351;85;28484;-87
2022/12/02 07:02:42;;;;;;;20.15;9.93;;;;;;;3.62;88.73;99961.07;4205269;83;28475;-84
2022/12/02 07:08:44;;;;;;;19.52;9.80;;;;;;;3.74;87.12;99965.56;4212178;83;28500;-85
2022/12/02 07:14:53;;;;;;;17.87;9.10;;;;;;;4.33;84.21;99963.28;4231919;83;28517;-87
2022/12/02 07:20:57;;;;;;;18.62;9.25;;;;;;;4.41;82.80;99964.28;4231728;83;28742;-85
2022/12/02 07:26:58;;;;;;;18.82;9.98;;;;;;;3.88;83.38;99967.27;4242821;83;28543;-85
2022/12/02 07:33:00;;;;;;;15.23;8.00;;;;;;;4.10;83.15;99967.09;4230293;83;28529;-83
2022/12/02 07:39:01;;;;;;;17.17;8.48;;;;;;;4.09;82.49;99961.96;4312066;82;28492;-83
2022/12/02 07:45:03;;;;;;;17.85;8.68;;;;;;;4.03;80.86;99963.45;4297427;81;28489;-83
2022/12/02 07:51:05;;;;;;;18.12;9.10;;;;;;;4.38;81.41;99960.63;4377024;80;28497;-83
2022/12/02 07:57:06;;;;;;;15.23;8.20;;;;;;;4.31;82.76;99959.95;4350427;81;28593;-83
2022/12/02 08:03:08;;;;;;;17.32;9.10;;;;;;;3.85;80.33;99962.25;4305148;81;28569;-83
2022/12/02 08:09:10;;;;;;;17.23;7.87;;;;;;;3.46;84.00;99975.64;4330156;81;28539;-83
2022/12/02 08:15:12;;;;;;;16.67;8.38;;;;;;;3.92;82.46;99967.77;4325199;82;28580;-83
2022/12/02 08:21:13;;;;;;;15.95;8.30;;;;;;;4.23;82.25;99971.94;4349369;81;28511;-83
2022/12/02 08:27:15;;;;;;;15.68;8.60;;;;;;;4.61;79.16;99972.73;4339534;81;28563;-82
2022/12/02 08:33:16;;;;;;;15.63;8.70;;;;;;;4.46;80.60;99973.91;4337741;81;28603;-82
2022/12/02 08:39:17;;;;;;;18.15;8.73;;;;;;;4.48;80.84;99979.93;4332722;81;28537;-83
2022/12/02 08:45:19;;;;;;;16.48;7.55;;;;;;;3.88;83.88;99981.90;4348360;81;28500;-83
2022/12/02 08:51:20;;;;;;;16.25;8.50;;;;;;;3.67;84.43;99980.53;4336470;81;28509;-82
2022/12/02 08:57:22;;;;;;;15.00;7.75;;;;;;;4.28;83.64;99980.27;4337739;82;28517;-83
2022/12/02 09:03:23;;;;;;;18.02;8.75;;;;;;;4.18;80.02;99978.27;4340247;80;28572;-84
2022/12/02 09:09:24;;;;;;;19.17;8.28;;;;;;;3.97;83.26;99982.73;4331001;81;28533;-83
2022/12/02 09:15:26;;;;;;;19.37;9.00;;;;;;;4.00;82.48;99975.26;4337229;82;28526;-83
2022/12/02 09:21:27;;;;;;;17.30;8.70;;;;;;;4.29;81.18;99978.42;4337679;82;28555;-83
2022/12/02 09:27:29;;;;;;;16.75;7.30;;;;;;;3.90;83.27;99973.25;4353590;81;28563;-83
2022/12/02 09:33:30;;;;;;;17.75;9.48;;;;;;;4.10;81.18;99976.93;4311426;82;28479;-83
2022/12/02 09:39:31;;;;;;;20.35;10.10;;;;;;;4.83;80.00;99974.35;4326037;81;28585;-84
2022/12/02 09:45:33;;;;;;;20.60;9.60;;;;;;;4.33;81.82;99969.13;4338012;81;28507;-84
2022/12/02 09:51:35;;;;;;;18.85;9.50;;;;;;;4.77;80.35;99977.20;4338772;82;28473;-85
2022/12/02 09:57:38;;;;;;;16.97;8.83;;;;;;;4.43;80.34;99971.59;4337780;81;28544;-86
2022/12/02 10:03:41;;;;;;;20.50;10.13;;;;;;;3.77;82.08;99972.39;4172179;81;28584;-85
2022/12/02 10:09:42;;;;;;;19.02;10.18;;;;;;;4.01;83.07;99962.77;4295768;81;28508;-85
2022/12/02 10:15:50;;;;;;;21.40;10.05;;;;;;;4.49;81.13;99963.44;4376390;81;28535;-86
2022/12/02 10:21:52;;;;;;;20.17;9.65;;;;;;;3.92;83.90;99958.46;4348938;81;28536;-84
2022/12/02 10:28:11;;;;;;;;;;;;;;;;;;;;;
2022/12/02 10:34:17;;;;;;;19.87;9.85;;;;;;;3.85;84.63;99948.95;4317929;82;28513;-84
2022/12/02 10:40:23;;;;;;;23.50;10.40;;;;;;;3.85;84.47;99952.94;4336708;81;28540;-84
2022/12/02 10:46:27;;;;;;;21.85;10.63;;;;;;;4.01;83.40;99944.14;4314996;81;28504;-83
2022/12/02 10:52:36;;;;;;;19.45;10.43;;;;;;;4.26;83.90;99939.64;4312568;81;28533;-83
2022/12/02 10:58:39;;;;;;;20.92;10.32;;;;;;;4.43;83.82;99942.30;4321549;81;28569;-83
2022/12/02 11:04:40;;;;;;;19.07;9.65;;;;;;;4.64;81.59;99936.45;4333660;81;28572;-83
2022/12/02 11:10:45;;;;;;;19.87;10.23;;;;;;;5.50;77.03;99930.92;4337275;81;28512;-85
2022/12/02 11:17:04;;;;;;;20.20;10.03;;;;;;;5.17;77.11;99926.61;4289006;81;28547;-88
2022/12/02 11:23:17;;;;;;;19.98;9.60;;;;;;;4.29;81.73;99927.84;4343854;81;28568;-85
2022/12/02 11:29:18;;;;;;;19.57;10.30;;;;;;;4.25;80.80;99927.86;4340189;81;28482;-84
2022/12/02 11:35:23;;;;;;;19.27;9.15;;;;;;;3.90;82.62;99931.52;4292551;81;28537;-84
2022/12/02 11:41:28;;;;;;;21.60;10.00;;;;;;;4.09;82.89;99931.36;4294267;81;28566;-82
2022/12/02 11:47:33;;;;;;;22.00;10.90;;;;;;;4.77;79.46;99928.42;4319218;82;28576;-83
2022/12/02 11:53:34;;;;;;;22.22;10.38;;;;;;;4.28;81.61;99923.52;4319958;81;28555;-83
2022/12/02 11:59:40;;;;;;;23.62;10.98;;;;;;;4.67;80.10;99921.45;4316556;81;28581;-83
2022/12/02 12:06:05;;;;;;;23.45;10.23;;;;;;;4.74;79.36;99923.77;4198465;82;28527;-88
2022/12/02 12:12:16;;;;;;;22.60;10.48;;;;;;;4.49;80.41;99915.02;4176392;83;28596;-84
2022/12/02 12:18:47;;;;;;;23.22;10.30;;;;;;;4.23;78.54;99912.55;4194347;83;28478;-86
2022/12/02 12:24:49;;;;;;;22.32;11.55;;;;;;;4.44;79.90;99908.86;4176291;84;28545;-86
2022/12/02 12:30:50;;;;;;;21.45;11.18;;;;;;;5.37;77.53;99909.66;4156634;84;28503;-86
2022/12/02 12:36:51;;;;;;;24.00;10.25;;;;;;;4.31;78.57;99913.36;4188557;84;28529;-85
2022/12/02 12:42:53;;;;;;;23.07;10.72;;;;;;;4.60;77.57;99911.98;4192729;84;28565;-85
2022/12/02 12:48:54;;;;;;;21.57;10.03;;;;;;;4.00;79.27;99906.55;4196809;82;28482;-85
2022/12/02 12:54:55;;;;;;;20.37;10.05;;;;;;;3.95;81.15;99910.23;4169368;83;28601;-85
2022/12/02 13:00:57;;;;;;;24.12;10.75;;;;;;;4.14;79.54;99917.87;4206663;82;28474;-83
2022/12/02 13:06:58;;;;;;;20.15;9.90;;;;;;;3.99;80.56;99910.22;4277011;81;28594;-85
2022/12/02 13:13:00;;;;;;;21.25;10.20;;;;;;;4.03;79.88;99906.24;4242245;82;28509;-83
2022/12/02 13:19:01;;;;;;;18.85;9.40;;;;;;;4.09;79.83;99900.23;4245099;81;28539;-83
2022/12/02 13:25:03;;;;;;;20.40;9.83;;;;;;;3.93;79.38;99905.58;4247105;82;28468;-86
2022/12/02 13:31:04;;;;;;;22.40;10.43;;;;;;;3.66;82.10;99907.55;4243067;82;28566;-87
2022/12/02 13:37:06;;;;;;;23.50;9.88;;;;;;;3.74;81.49;99910.22;4286307;82;28499;-88
2022/12/02 13:43:09;;;;;;;19.42;9.73;;;;;;;3.61;82.75;99904.05;4285755;82;28507;-86
2022/12/02 13:49:10;;;;;;;21.57;10.38;;;;;;;3.99;82.12;99898.24;4277294;82;28483;-82
2022/12/02 13:55:13;;;;;;;22.40;10.45;;;;;;;4.04;81.98;99910.05;4240100;82;28530;-84
2022/12/02 14:01:15;;;;;;;22.00;9.88;;;;;;;3.92;82.11;99905.25;4277289;81;28530;-83
2022/12/02 14:07:16;;;;;;;22.02;10.00;;;;;;;4.12;81.73;99911.90;4264881;82;28439;-84
2022/12/02 14:13:17;;;;;;;19.92;10.25;;;;;;;3.90;82.40;99919.55;4234411;82;28547;-84
2022/12/02 14:19:18;;;;;;;21.90;10.48;;;;;;;3.45;85.88;99921.65;4220965;82;28546;-85
2022/12/02 14:25:20;;;;;;;25.30;11.70;;;;;;;3.55;84.08;99918.83;4235004;82;28504;-85
2022/12/02 14:31:21;;;;;;;20.77;10.23;;;;;;;3.63;84.15;99919.33;4210594;82;28507;-84
2022/12/02 14:37:22;;;;;;;25.75;11.20;;;;;;;3.60;84.29;99925.84;4236109;82;28511;-84
2022/12/02 14:43:24;;;;;;;21.77;11.00;;;;;;;3.73;84.13;99925.84;4232601;82;28680;-84
2022/12/02 14:49:25;;;;;;;25.50;11.97;;;;;;;4.14;82.37;99926.34;4279598;82;28504;-84
2022/12/02 14:55:27;;;;;;;25.17;12.95;;;;;;;3.98;82.96;99917.38;4253922;82;28610;-85
2022/12/02 15:01:28;;;;;;;28.00;13.00;;;;;;;3.79;84.75;99921.18;4250224;82;28491;-84
2022/12/02 15:07:30;;;;;;;23.12;11.00;;;;;;;3.68;85.68;99918.84;4251005;82;28531;-84
2022/12/02 15:13:31;;;;;;;27.32;12.40;;;;;;;3.71;85.03;99927.84;4222377;82;28483;-84
2022/12/02 15:19:34;;;;;;;27.90;12.03;;;;;;;3.45;88.29;99926.97;4227495;82;28600;-82
2022/12/02 15:25:35;;;;;;;27.13;11.50;;;;;;;3.84;86.09;99922.86;4215614;82;28506;-83
2022/12/02 15:31:37;;;;;;;23.52;10.55;;;;;;;4.58;83.40;99927.31;4254213;81;28593;-84
2022/12/02 15:37:39;;;;;;;29.02;11.95;;;;;;;3.46;87.48;99935.27;4237772;82;28553;-84
2022/12/02 15:43:40;;;;;;;26.60;12.33;;;;;;;3.49;86.35;99939.44;4272059;82;28507;-84
2022/12/02 15:49:41;;;;;;;27.00;11.83;;;;;;;3.64;86.34;99939.61;4203034;82;28498;-85
2022/12/02 15:55:42;;;;;;;29.52;13.00;;;;;;;3.72;85.28;99932.98;4264440;81;28481;-83
2022/12/02 16:01:44;;;;;;;24.90;11.73;;;;;;;3.93;85.76;99930.86;4281008;82;28516;-85
2022/12/02 16:07:45;;;;;;;27.32;12.15;;;;;;;4.41;81.58;99937.66;4246951;82;28524;-85
2022/12/02 16:13:48;;;;;;;26.95;13.10;;;;;;;3.50;85.40;99946.42;4220815;82;28529;-82
2022/12/02 16:19:49;;;;;;;27.15;12.23;;;;;;;3.97;85.30;99929.52;4229044;82;28551;-86
2022/12/02 16:25:51;;;;;;;29.48;13.10;;;;;;;3.26;86.91;99944.52;4240777;82;28535;-87
2022/12/02 16:31:52;;;;;;;32.67;14.63;;;;;;;3.71;85.64;99944.62;4254474;82;28491;-86
2022/12/02 16:37:54;;;;;;;35.05;14.47;;;;;;;3.80;85.82;99945.48;4250774;82;28507;-84
2022/12/02 16:43:55;;;;;;;32.88;14.33;;;;;;;3.55;87.49;99938.77;4235856;82;28594;-84
2022/12/02 16:49:57;;;;;;;36.58;15.55;;;;;;;3.06;93.05;99946.91;4240099;82;28467;-85
2022/12/02 16:56:02;;;;;;;33.15;14.07;;;;;;;4.15;93.27;99941.31;4236244;82;28472;-90
2022/12/02 17:02:03;;;;;;;42.90;18.10;;;;;;;3.73;91.33;99945.80;4243615;82;28479;-87
2022/12/02 17:08:07;;;;;;;37.88;15.55;;;;;;;3.84;92.73;99943.30;4259377;82;28529;-86
2022/12/02 17:14:08;;;;;;;42.40;16.75;;;;;;;3.77;92.24;99945.79;4260187;82;28554;-81
2022/12/02 17:20:14;;;;;;;37.25;15.53;;;;;;;4.01;91.32;99946.80;4263915;82;28558;-86
2022/12/02 17:26:15;;;;;;;40.43;16.27;;;;;;;3.06;94.37;99952.23;4233016;82;28515;-79
2022/12/02 17:32:16;;;;;;;35.85;14.50;;;;;;;3.71;93.00;99949.13;4239591;82;28522;-84
2022/12/02 17:38:18;;;;;;;40.12;17.42;;;;;;;3.22;93.98;99955.96;4246194;82;28493;-80
2022/12/02 17:44:19;;;;;;;41.98;16.37;;;;;;;3.97;91.98;99956.13;4227482;84;28505;-89
2022/12/02 17:50:22;;;;;;;38.85;16.15;;;;;;;3.81;90.42;99956.45;4229358;82;29012;-81
2022/12/02 17:56:24;;;;;;;38.65;16.82;;;;;;;4.33;88.49;99956.63;4231867;82;28563;-84
2022/12/02 18:02:25;;;;;;;45.00;19.32;;;;;;;3.99;89.38;99968.76;4243594;82;28492;-84
2022/12/02 18:08:29;;;;;;;39.50;17.32;;;;;;;4.64;86.55;99969.75;4249399;82;28527;-83
2022/12/02 18:14:31;;;;;;;40.67;17.60;;;;;;;3.92;87.75;99977.91;4248428;82;28592;-83
2022/12/02 18:20:32;;;;;;;47.08;19.60;;;;;;;3.85;88.95;99974.23;4249250;82;28740;-83
2022/12/02 18:26:37;;;;;;;44.40;17.73;;;;;;;4.23;88.80;99974.59;4249378;82;28511;-84
2022/12/02 18:32:38;;;;;;;41.90;17.50;;;;;;;4.11;87.61;99969.27;4232560;83;28515;-84
2022/12/02 18:38:40;;;;;;;48.58;19.25;;;;;;;4.18;86.31;99972.43;4250739;82;28633;-81
2022/12/02 18:44:43;;;;;;;45.25;18.02;;;;;;;3.81;90.86;99976.41;4167708;84;28575;-81
2022/12/02 18:50:45;;;;;;;45.83;18.48;;;;;;;4.08;89.62;99981.59;4162493;84;28508;-81
2022/12/02 18:56:47;;;;;;;43.20;18.05;;;;;;;4.72;85.95;99984.88;4129873;85;28525;-80
2022/12/02 19:02:49;;;;;;;49.25;19.30;;;;;;;4.90;84.79;99975.34;4146141;82;28548;-82
2022/12/02 19:08:55;;;;;;;49.42;19.25;;;;;;;4.12;87.48;99977.59;4194582;83;28515;-82
2022/12/02 19:15:01;;;;;;;46.30;18.57;;;;;;;4.32;87.11;99969.61;4192120;83;28583;-80
2022/12/02 19:21:04;;;;;;;50.05;19.87;;;;;;;4.16;87.44;99967.78;4202185;82;28625;-83
2022/12/02 19:27:05;;;;;;;52.35;20.12;;;;;;;4.50;88.91;99965.94;4180652;83;28514;-82
2022/12/02 19:33:06;;;;;;;44.38;18.60;;;;;;;4.62;87.88;99970.39;4190111;83;28578;-83
2022/12/02 19:39:10;;;;;;;45.20;18.70;;;;;;;4.24;88.86;99968.78;4199032;83;28581;-84
2022/12/02 19:45:13;;;;;;;47.25;19.48;;;;;;;4.15;90.27;99967.45;4200025;83;28480;-84
2022/12/02 19:51:14;;;;;;;54.18;21.17;;;;;;;4.33;90.97;99963.80;4205176;84;28491;-83
2022/12/02 19:57:16;;;;;;;50.73;19.85;;;;;;;4.46;91.96;99977.42;4202556;83;28535;-84
2022/12/02 20:03:18;;;;;;;53.80;21.23;;;;;;;3.86;95.02;99974.59;4195872;82;28512;-84
2022/12/02 20:09:21;;;;;;;53.92;21.00;;;;;;;4.60;94.45;99969.25;4183492;83;28519;-83
2022/12/02 20:15:22;;;;;;;53.90;20.30;;;;;;;4.44;93.27;99968.77;4191121;84;28501;-83
2022/12/02 20:21:25;;;;;;;54.83;21.40;;;;;;;4.56;91.34;99968.42;4164971;84;28520;-87
2022/12/02 20:27:30;;;;;;;51.33;20.02;;;;;;;4.45;92.13;99959.78;4202047;83;28492;-90
2022/12/02 20:33:35;;;;;;;59.90;22.80;;;;;;;3.51;95.47;99961.38;4203710;83;28521;-80
2022/12/02 20:39:36;;;;;;;59.20;21.95;;;;;;;4.29;95.99;99953.13;4166995;83;28507;-80
2022/12/02 20:45:39;;;;;;;50.70;21.57;;;;;;;3.84;97.01;99944.14;4189465;83;28536;-81
2022/12/02 20:51:41;;;;;;;57.17;21.42;;;;;;;4.09;95.82;99937.49;4204647;83;28529;-81
2022/12/02 20:57:44;;;;;;;59.23;22.15;;;;;;;4.67;94.72;99932.59;4191400;83;28471;-81
2022/12/02 21:03:46;;;;;;;57.58;22.17;;;;;;;4.33;95.34;99933.17;4185283;83;28526;-82
2022/12/02 21:09:53;;;;;;;56.92;20.62;;;;;;;4.59;94.95;99932.97;4197001;83;28501;-81
2022/12/02 21:15:55;;;;;;;54.27;21.42;;;;;;;4.66;94.50;99942.44;4186011;82;28557;-81
2022/12/02 21:21:59;;;;;;;56.53;21.35;;;;;;;4.59;93.43;99946.77;4220127;83;28531;-80
2022/12/02 21:28:01;;;;;;;60.63;23.25;;;;;;;4.71;93.22;99946.73;4191616;82;28526;-80
2022/12/02 21:34:06;;;;;;;56.98;22.70;;;;;;;4.92;90.82;99954.67;4209074;83;28507;-80
2022/12/02 21:40:10;;;;;;;56.70;22.52;;;;;;;4.40;91.39;99958.11;4183109;83;28540;-81
2022/12/02 21:46:14;;;;;;;49.87;20.33;;;;;;;4.56;92.38;99957.77;4170315;83;28542;-81
2022/12/02 21:52:16;;;;;;;53.20;20.27;;;;;;;4.45;91.12;99952.28;4205963;83;28510;-80
2022/12/02 21:58:17;;;;;;;51.55;21.00;;;;;;;4.48;92.78;99952.45;4192572;83;28480;-84
2022/12/02 22:04:19;;;;;;;48.83;20.08;;;;;;;4.74;92.97;99954.41;4217284;82;28527;-84
2022/12/02 22:10:25;;;;;;;47.53;19.85;;;;;;;5.02;91.90;99956.64;4259411;82;28550;-87
2022/12/02 22:16:30;;;;;;;47.30;19.52;;;;;;;4.98;91.14;99958.48;4262870;82;28522;-84
2022/12/02 22:22:34;;;;;;;51.02;20.25;;;;;;;4.95;90.38;99959.69;4251378;82;28487;-82
2022/12/02 22:28:36;;;;;;;55.23;21.00;;;;;;;5.01;89.64;99950.98;4278154;82;28559;-82
2022/12/02 22:34:39;;;;;;;52.70;20.23;;;;;;;4.90;90.19;99943.88;4290471;82;28497;-82
2022/12/02 22:40:40;;;;;;;52.53;19.87;;;;;;;4.95;90.34;99949.02;4262468;82;28571;-82
2022/12/02 22:46:42;;;;;;;59.95;22.75;;;;;;;5.04;89.61;99951.15;4233885;82;28555;-82
2022/12/02 22:52:43;;;;;;;53.80;19.73;;;;;;;4.84;90.35;99950.21;4258639;82;28445;-82
2022/12/02 22:58:45;;;;;;;51.42;19.98;;;;;;;5.21;87.73;99950.58;4258608;82;28523;-83
2022/12/02 23:04:48;;;;;;;55.73;21.42;;;;;;;4.95;89.92;99946.84;4278845;81;28575;-83
2022/12/02 23:10:49;;;;;;;47.33;18.70;;;;;;;4.84;91.19;99954.69;4255106;82;28542;-82
2022/12/02 23:16:50;;;;;;;49.50;19.77;;;;;;;5.08;89.03;99951.64;4267425;82;28570;-82
2022/12/02 23:22:52;;;;;;;61.95;20.08;;;;;;;5.34;89.10;99951.84;4249842;82;28518;-82
2022/12/02 23:28:53;;;;;;;59.00;19.55;;;;;;;5.18;91.33;99951.42;4205767;82;28489;-83
2022/12/02 23:34:55;;;;;;;57.25;20.57;;;;;;;5.01;92.68;99949.65;4238746;82;28606;-83
2022/12/02 23:40:56;;;;;;;57.73;20.82;;;;;;;4.87;92.58;99948.52;4232063;82;28463;-83
2022/12/02 23:46:57;;;;;;;52.05;19.85;;;;;;;4.93;93.94;99944.34;4230201;82;28523;-83
2022/12/02 23:52:58;;;;;;;53.33;19.57;;;;;;;5.20;92.29;99945.41;4234460;82;28523;-81
2022/12/02 23:59:00;;;;;;;54.80;19.65;;;;;;;5.38;90.07;99943.84;4249396;82;28547;-82
